sensor_id;sensor_type;location;lat;lon;timestamp;pressure;altitude;pressure_sealevel;temperature;humidity
84781;BME280;75011;50.086;19.886;2024-03-29T00:01:27;97482.47;;;6.28;85.38
84781;BME280;75011;50.086;19.886;2024-03-29T00:04:29;97502.75;;;6.29;85.63
84781;BME280;75011;50.086;19.886;2024-03-29T00:07:30;97504.88;;;6.32;85.51
84781;BME280;75011;50.086;19.886;2024-03-29T00:10:31;97503.31;;;6.36;86.28
84781;BME280;75011;50.086;19.886;2024-03-29T00:13:32;97501.44;;;6.42;86.23
84781;BME280;75011;50.086;19.886;2024-03-29T00:16:32;97526.78;;;6.39;86.66
84781;BME280;75011;50.086;19.886;2024-03-29T00:19:34;97523.34;;;6.44;86.21
84781;BME280;75011;50.086;19.886;2024-03-29T00:22:35;97534.03;;;6.44;86.25
84781;BME280;75011;50.086;19.886;2024-03-29T00:25:36;97540.16;;;6.44;86.61
84781;BME280;75011;50.086;19.886;2024-03-29T00:28:37;97545.47;;;6.44;86.47
84781;BME280;75011;50.086;19.886;2024-03-29T00:31:37;97540.72;;;6.46;86.48
84781;BME280;75011;50.086;19.886;2024-03-29T00:34:40;97545.25;;;6.46;86.45
84781;BME280;75011;50.086;19.886;2024-03-29T00:37:40;97571.66;;;6.47;86.50
84781;BME280;75011;50.086;19.886;2024-03-29T00:40:41;97562.31;;;6.50;86.60
84781;BME280;75011;50.086;19.886;2024-03-29T00:43:42;97562.06;;;6.51;86.20
84781;BME280;75011;50.086;19.886;2024-03-29T00:46:42;97560.75;;;6.54;86.54
84781;BME280;75011;50.086;19.886;2024-03-29T00:49:45;97568.47;;;6.55;86.11
84781;BME280;75011;50.086;19.886;2024-03-29T00:52:45;97582.63;;;6.56;86.56
84781;BME280;75011;50.086;19.886;2024-03-29T00:55:46;97592.50;;;6.55;86.40
84781;BME280;75011;50.086;19.886;2024-03-29T00:58:47;97604.22;;;6.54;86.58
84781;BME280;75011;50.086;19.886;2024-03-29T01:01:48;97607.72;;;6.55;85.88
84781;BME280;75011;50.086;19.886;2024-03-29T01:04:50;97609.53;;;6.44;85.70
84781;BME280;75011;50.086;19.886;2024-03-29T01:07:51;97628.53;;;6.53;85.89
84781;BME280;75011;50.086;19.886;2024-03-29T01:10:51;97626.13;;;6.51;86.52
84781;BME280;75011;50.086;19.886;2024-03-29T01:13:52;97645.03;;;6.50;86.51
84781;BME280;75011;50.086;19.886;2024-03-29T01:16:53;97638.91;;;6.49;86.51
84781;BME280;75011;50.086;19.886;2024-03-29T01:19:55;97643.16;;;6.45;86.35
84781;BME280;75011;50.086;19.886;2024-03-29T01:22:56;97636.75;;;6.41;86.88
84781;BME280;75011;50.086;19.886;2024-03-29T01:25:56;97649.53;;;6.44;86.98
84781;BME280;75011;50.086;19.886;2024-03-29T01:28:57;97647.16;;;6.48;86.51
84781;BME280;75011;50.086;19.886;2024-03-29T01:31:58;97670.91;;;6.49;87.08
84781;BME280;75011;50.086;19.886;2024-03-29T01:35:00;97663.72;;;6.50;86.53
84781;BME280;75011;50.086;19.886;2024-03-29T01:38:01;97669.03;;;6.45;86.75
84781;BME280;75011;50.086;19.886;2024-03-29T01:41:02;97677.81;;;6.40;86.65
84781;BME280;75011;50.086;19.886;2024-03-29T01:44:03;97670.75;;;6.24;87.48
84781;BME280;75011;50.086;19.886;2024-03-29T01:47:05;97684.91;;;6.24;87.67
84781;BME280;75011;50.086;19.886;2024-03-29T01:50:08;97695.81;;;6.18;87.13
84781;BME280;75011;50.086;19.886;2024-03-29T01:53:10;97702.41;;;6.10;87.07
84781;BME280;75011;50.086;19.886;2024-03-29T01:56:13;97705.53;;;6.02;87.21
84781;BME280;75011;50.086;19.886;2024-03-29T01:59:16;97717.47;;;5.95;87.32
84781;BME280;75011;50.086;19.886;2024-03-29T02:02:19;97727.59;;;5.93;87.65
84781;BME280;75011;50.086;19.886;2024-03-29T02:05:22;97742.25;;;5.90;87.74
84781;BME280;75011;50.086;19.886;2024-03-29T02:08:24;97746.19;;;5.88;87.75
84781;BME280;75011;50.086;19.886;2024-03-29T02:11:26;97766.66;;;5.82;87.87
84781;BME280;75011;50.086;19.886;2024-03-29T02:14:27;97771.41;;;5.80;88.17
84781;BME280;75011;50.086;19.886;2024-03-29T02:17:29;97777.81;;;5.79;88.66
84781;BME280;75011;50.086;19.886;2024-03-29T02:20:32;97784.94;;;5.73;88.42
84781;BME280;75011;50.086;19.886;2024-03-29T02:23:37;97799.13;;;5.79;88.64
84781;BME280;75011;50.086;19.886;2024-03-29T02:26:40;97812.94;;;5.76;87.83
84781;BME280;75011;50.086;19.886;2024-03-29T02:29:42;97818.50;;;5.69;87.87
84781;BME280;75011;50.086;19.886;2024-03-29T02:32:45;97831.81;;;5.69;87.79
84781;BME280;75011;50.086;19.886;2024-03-29T02:35:46;97833.91;;;5.67;87.85
84781;BME280;75011;50.086;19.886;2024-03-29T02:38:48;97848.28;;;5.66;88.32
84781;BME280;75011;50.086;19.886;2024-03-29T02:41:51;97855.22;;;5.67;88.08
84781;BME280;75011;50.086;19.886;2024-03-29T02:44:53;97866.47;;;5.69;87.73
84781;BME280;75011;50.086;19.886;2024-03-29T02:47:56;97863.47;;;5.66;87.40
84781;BME280;75011;50.086;19.886;2024-03-29T02:50:57;97854.13;;;5.63;87.41
84781;BME280;75011;50.086;19.886;2024-03-29T02:53:58;97861.28;;;5.63;87.00
84781;BME280;75011;50.086;19.886;2024-03-29T02:57:01;97863.66;;;5.59;87.31
84781;BME280;75011;50.086;19.886;2024-03-29T03:00:02;97878.03;;;5.58;87.10
84781;BME280;75011;50.086;19.886;2024-03-29T03:03:04;97874.81;;;5.56;87.18
84781;BME280;75011;50.086;19.886;2024-03-29T03:06:06;97877.34;;;5.46;87.26
84781;BME280;75011;50.086;19.886;2024-03-29T03:09:07;97886.13;;;5.47;86.83
84781;BME280;75011;50.086;19.886;2024-03-29T03:12:28;97896.22;;;5.45;86.91
84781;BME280;75011;50.086;19.886;2024-03-29T03:15:30;97897.78;;;5.41;86.98
84781;BME280;75011;50.086;19.886;2024-03-29T03:18:32;97917.72;;;5.38;87.18
84781;BME280;75011;50.086;19.886;2024-03-29T03:21:35;97910.78;;;5.37;86.70
84781;BME280;75011;50.086;19.886;2024-03-29T03:24:35;97933.16;;;5.36;86.94
84781;BME280;75011;50.086;19.886;2024-03-29T03:27:38;97931.53;;;5.35;86.67
84781;BME280;75011;50.086;19.886;2024-03-29T03:30:40;97939.59;;;5.40;86.31
84781;BME280;75011;50.086;19.886;2024-03-29T03:33:42;97944.72;;;5.47;85.54
84781;BME280;75011;50.086;19.886;2024-03-29T03:36:43;97942.31;;;5.45;85.34
84781;BME280;75011;50.086;19.886;2024-03-29T03:39:44;97937.75;;;5.41;85.45
84781;BME280;75011;50.086;19.886;2024-03-29T03:42:46;97919.91;;;5.41;85.17
84781;BME280;75011;50.086;19.886;2024-03-29T03:45:48;97928.31;;;5.33;85.58
84781;BME280;75011;50.086;19.886;2024-03-29T03:48:49;97927.91;;;5.25;86.27
84781;BME280;75011;50.086;19.886;2024-03-29T03:51:50;97929.19;;;5.22;86.16
84781;BME280;75011;50.086;19.886;2024-03-29T03:54:51;97945.09;;;5.17;85.80
84781;BME280;75011;50.086;19.886;2024-03-29T03:57:54;97938.06;;;5.11;86.16
84781;BME280;75011;50.086;19.886;2024-03-29T04:00:56;97945.97;;;5.06;85.98
84781;BME280;75011;50.086;19.886;2024-03-29T04:03:57;97939.63;;;5.07;85.76
84781;BME280;75011;50.086;19.886;2024-03-29T04:06:58;97922.94;;;4.95;86.21
84781;BME280;75011;50.086;19.886;2024-03-29T04:09:59;97946.97;;;5.00;86.17
84781;BME280;75011;50.086;19.886;2024-03-29T04:13:02;97959.84;;;4.91;85.89
84781;BME280;75011;50.086;19.886;2024-03-29T04:16:05;97951.47;;;4.83;86.00
84781;BME280;75011;50.086;19.886;2024-03-29T04:19:06;97955.19;;;4.82;86.54
84781;BME280;75011;50.086;19.886;2024-03-29T04:22:08;97965.47;;;4.78;86.30
84781;BME280;75011;50.086;19.886;2024-03-29T04:25:08;97960.31;;;4.72;86.28
84781;BME280;75011;50.086;19.886;2024-03-29T04:28:11;97969.81;;;4.68;86.39
84781;BME280;75011;50.086;19.886;2024-03-29T04:31:12;97963.81;;;4.72;86.39
84781;BME280;75011;50.086;19.886;2024-03-29T04:34:14;97963.06;;;4.77;86.84
84781;BME280;75011;50.086;19.886;2024-03-29T04:37:14;97963.06;;;4.77;86.51
84781;BME280;75011;50.086;19.886;2024-03-29T04:40:16;97966.47;;;4.72;86.32
84781;BME280;75011;50.086;19.886;2024-03-29T04:43:22;97971.53;;;4.74;86.26
84781;BME280;75011;50.086;19.886;2024-03-29T04:46:23;97979.16;;;4.70;85.80
84781;BME280;75011;50.086;19.886;2024-03-29T04:49:25;97981.84;;;4.70;86.34
84781;BME280;75011;50.086;19.886;2024-03-29T04:52:33;97987.38;;;4.80;85.75
84781;BME280;75011;50.086;19.886;2024-03-29T04:55:35;97986.84;;;4.83;85.59
84781;BME280;75011;50.086;19.886;2024-03-29T04:58:38;97988.22;;;4.86;85.85
84781;BME280;75011;50.086;19.886;2024-03-29T05:01:40;97991.25;;;4.89;85.67
84781;BME280;75011;50.086;19.886;2024-03-29T05:04:43;98011.59;;;4.95;85.89
84781;BME280;75011;50.086;19.886;2024-03-29T05:07:45;98017.22;;;4.99;85.67
84781;BME280;75011;50.086;19.886;2024-03-29T05:10:47;98012.78;;;5.04;85.10
84781;BME280;75011;50.086;19.886;2024-03-29T05:13:50;97991.56;;;5.09;84.76
84781;BME280;75011;50.086;19.886;2024-03-29T05:16:51;97993.75;;;5.13;84.99
84781;BME280;75011;50.086;19.886;2024-03-29T05:19:53;97997.78;;;5.15;85.21
84781;BME280;75011;50.086;19.886;2024-03-29T05:22:55;98005.94;;;5.25;84.94
84781;BME280;75011;50.086;19.886;2024-03-29T05:25:56;97990.59;;;5.32;84.42
84781;BME280;75011;50.086;19.886;2024-03-29T05:28:59;97997.63;;;5.38;84.27
84781;BME280;75011;50.086;19.886;2024-03-29T05:32:04;98010.97;;;5.38;84.30
84781;BME280;75011;50.086;19.886;2024-03-29T05:35:06;98020.63;;;5.44;84.51
84781;BME280;75011;50.086;19.886;2024-03-29T05:38:09;98032.72;;;5.52;84.13
84781;BME280;75011;50.086;19.886;2024-03-29T05:41:10;98037.66;;;5.60;83.74
84781;BME280;75011;50.086;19.886;2024-03-29T05:44:14;98048.97;;;5.67;83.89
84781;BME280;75011;50.086;19.886;2024-03-29T05:47:15;98055.16;;;5.72;83.68
84781;BME280;75011;50.086;19.886;2024-03-29T05:50:17;98061.88;;;5.75;83.33
84781;BME280;75011;50.086;19.886;2024-03-29T05:53:19;98059.97;;;5.87;82.46
84781;BME280;75011;50.086;19.886;2024-03-29T05:56:20;98059.56;;;5.95;82.87
84781;BME280;75011;50.086;19.886;2024-03-29T05:59:23;98066.63;;;6.06;82.50
84781;BME280;75011;50.086;19.886;2024-03-29T06:02:25;98062.25;;;6.17;82.03
84781;BME280;75011;50.086;19.886;2024-03-29T06:05:27;98060.28;;;6.29;81.45
84781;BME280;75011;50.086;19.886;2024-03-29T06:08:28;98065.25;;;6.42;80.94
84781;BME280;75011;50.086;19.886;2024-03-29T06:11:30;98057.91;;;6.54;80.44
84781;BME280;75011;50.086;19.886;2024-03-29T06:14:34;98059.16;;;6.68;79.84
84781;BME280;75011;50.086;19.886;2024-03-29T06:17:53;98070.50;;;6.80;79.19
84781;BME280;75011;50.086;19.886;2024-03-29T06:20:54;98080.81;;;6.93;79.04
84781;BME280;75011;50.086;19.886;2024-03-29T06:23:56;98086.84;;;7.11;78.42
84781;BME280;75011;50.086;19.886;2024-03-29T06:26:58;98101.44;;;7.25;76.97
84781;BME280;75011;50.086;19.886;2024-03-29T06:30:01;98088.19;;;7.35;77.30
84781;BME280;75011;50.086;19.886;2024-03-29T06:33:04;98078.13;;;7.47;77.60
84781;BME280;75011;50.086;19.886;2024-03-29T06:36:08;98091.03;;;7.55;76.90
84781;BME280;75011;50.086;19.886;2024-03-29T06:39:10;98078.00;;;7.64;77.07
84781;BME280;75011;50.086;19.886;2024-03-29T06:42:11;98064.97;;;7.72;76.42
84781;BME280;75011;50.086;19.886;2024-03-29T06:45:14;98064.25;;;7.82;75.97
84781;BME280;75011;50.086;19.886;2024-03-29T06:48:16;98060.56;;;7.93;75.62
84781;BME280;75011;50.086;19.886;2024-03-29T06:51:18;98065.16;;;8.02;74.97
84781;BME280;75011;50.086;19.886;2024-03-29T06:54:19;98068.47;;;8.14;75.26
84781;BME280;75011;50.086;19.886;2024-03-29T06:57:22;98066.09;;;8.23;74.39
84781;BME280;75011;50.086;19.886;2024-03-29T07:00:27;98061.94;;;8.37;73.77
84781;BME280;75011;50.086;19.886;2024-03-29T07:03:29;98067.34;;;8.47;73.35
84781;BME280;75011;50.086;19.886;2024-03-29T07:06:31;98079.72;;;8.58;72.80
84781;BME280;75011;50.086;19.886;2024-03-29T07:09:32;98077.31;;;8.67;73.15
84781;BME280;75011;50.086;19.886;2024-03-29T07:12:34;98077.66;;;8.80;72.75
84781;BME280;75011;50.086;19.886;2024-03-29T07:15:37;98074.19;;;8.95;71.89
84781;BME280;75011;50.086;19.886;2024-03-29T07:18:39;98071.03;;;9.13;71.32
84781;BME280;75011;50.086;19.886;2024-03-29T07:21:40;98062.50;;;9.36;69.68
84781;BME280;75011;50.086;19.886;2024-03-29T07:24:42;98054.47;;;9.57;69.52
84781;BME280;75011;50.086;19.886;2024-03-29T07:27:43;98046.69;;;9.70;68.47
84781;BME280;75011;50.086;19.886;2024-03-29T07:30:47;98027.63;;;9.82;68.84
84781;BME280;75011;50.086;19.886;2024-03-29T07:33:50;98006.13;;;9.92;68.45
84781;BME280;75011;50.086;19.886;2024-03-29T07:36:52;98015.22;;;10.11;66.68
84781;BME280;75011;50.086;19.886;2024-03-29T07:39:53;98013.59;;;10.20;66.83
84781;BME280;75011;50.086;19.886;2024-03-29T07:42:55;98024.88;;;10.32;66.15
84781;BME280;75011;50.086;19.886;2024-03-29T07:45:58;98027.72;;;10.51;65.20
84781;BME280;75011;50.086;19.886;2024-03-29T07:49:00;98018.28;;;10.63;64.45
84781;BME280;75011;50.086;19.886;2024-03-29T07:52:03;98049.94;;;10.77;62.92
84781;BME280;75011;50.086;19.886;2024-03-29T07:55:06;98066.53;;;10.89;62.46
84781;BME280;75011;50.086;19.886;2024-03-29T07:58:10;98073.44;;;11.05;60.66
84781;BME280;75011;50.086;19.886;2024-03-29T08:01:19;98078.72;;;11.20;60.77
84781;BME280;75011;50.086;19.886;2024-03-29T08:04:21;98082.13;;;11.35;60.45
84781;BME280;75011;50.086;19.886;2024-03-29T08:07:23;98090.88;;;11.56;59.33
84781;BME280;75011;50.086;19.886;2024-03-29T08:10:24;98080.03;;;11.71;58.54
84781;BME280;75011;50.086;19.886;2024-03-29T08:13:27;98080.09;;;11.95;58.21
84781;BME280;75011;50.086;19.886;2024-03-29T08:16:30;98078.53;;;12.18;57.46
84781;BME280;75011;50.086;19.886;2024-03-29T08:19:31;98066.34;;;12.25;55.19
84781;BME280;75011;50.086;19.886;2024-03-29T08:22:33;98083.78;;;12.33;55.05
84781;BME280;75011;50.086;19.886;2024-03-29T08:25:35;98082.75;;;12.29;54.95
84781;BME280;75011;50.086;19.886;2024-03-29T08:28:37;98081.22;;;12.46;55.25
84781;BME280;75011;50.086;19.886;2024-03-29T08:31:40;98089.63;;;12.63;53.97
84781;BME280;75011;50.086;19.886;2024-03-29T08:34:42;98092.56;;;12.67;53.16
84781;BME280;75011;50.086;19.886;2024-03-29T08:37:43;98078.72;;;12.74;52.76
84781;BME280;75011;50.086;19.886;2024-03-29T08:40:45;98080.50;;;12.83;52.44
84781;BME280;75011;50.086;19.886;2024-03-29T08:43:48;98081.84;;;13.04;51.63
84781;BME280;75011;50.086;19.886;2024-03-29T08:46:51;98076.44;;;13.04;50.44
84781;BME280;75011;50.086;19.886;2024-03-29T08:49:55;98088.63;;;13.02;48.57
84781;BME280;75011;50.086;19.886;2024-03-29T08:52:57;98082.91;;;13.08;48.90
84781;BME280;75011;50.086;19.886;2024-03-29T08:55:58;98096.09;;;13.10;49.04
84781;BME280;75011;50.086;19.886;2024-03-29T08:59:00;98099.53;;;13.15;49.25
84781;BME280;75011;50.086;19.886;2024-03-29T09:02:05;98093.47;;;13.23;47.29
84781;BME280;75011;50.086;19.886;2024-03-29T09:05:08;98095.75;;;13.35;47.11
84781;BME280;75011;50.086;19.886;2024-03-29T09:08:09;98102.75;;;13.55;45.25
84781;BME280;75011;50.086;19.886;2024-03-29T09:11:11;98112.16;;;13.76;46.40
84781;BME280;75011;50.086;19.886;2024-03-29T09:14:12;98103.59;;;13.87;45.84
84781;BME280;75011;50.086;19.886;2024-03-29T09:17:16;98096.00;;;13.90;42.80
84781;BME280;75011;50.086;19.886;2024-03-29T09:20:17;98109.03;;;14.01;42.93
84781;BME280;75011;50.086;19.886;2024-03-29T09:23:19;98110.66;;;14.02;41.78
84781;BME280;75011;50.086;19.886;2024-03-29T09:26:23;98108.78;;;14.03;42.86
84781;BME280;75011;50.086;19.886;2024-03-29T09:29:25;98106.75;;;14.08;42.64
84781;BME280;75011;50.086;19.886;2024-03-29T09:32:28;98101.66;;;14.07;40.79
84781;BME280;75011;50.086;19.886;2024-03-29T09:35:30;98111.16;;;14.04;41.93
84781;BME280;75011;50.086;19.886;2024-03-29T09:38:31;98106.59;;;14.18;41.75
84781;BME280;75011;50.086;19.886;2024-03-29T09:41:33;98114.22;;;14.30;41.21
84781;BME280;75011;50.086;19.886;2024-03-29T09:44:38;98098.84;;;14.44;41.58
84781;BME280;75011;50.086;19.886;2024-03-29T09:47:42;98111.19;;;14.50;38.67
84781;BME280;75011;50.086;19.886;2024-03-29T09:50:44;98114.13;;;14.54;37.52
84781;BME280;75011;50.086;19.886;2024-03-29T09:53:46;98107.22;;;14.61;37.61
84781;BME280;75011;50.086;19.886;2024-03-29T09:56:49;98102.56;;;14.62;37.03
84781;BME280;75011;50.086;19.886;2024-03-29T09:59:51;98102.47;;;14.67;36.57
84781;BME280;75011;50.086;19.886;2024-03-29T10:02:56;98091.25;;;14.60;36.27
84781;BME280;75011;50.086;19.886;2024-03-29T10:05:58;98107.19;;;14.75;36.11
84781;BME280;75011;50.086;19.886;2024-03-29T10:09:01;98097.47;;;14.87;35.20
84781;BME280;75011;50.086;19.886;2024-03-29T10:12:03;98091.56;;;14.99;36.07
84781;BME280;75011;50.086;19.886;2024-03-29T10:15:06;98095.09;;;14.99;35.16
84781;BME280;75011;50.086;19.886;2024-03-29T10:18:12;98106.78;;;15.08;35.41
84781;BME280;75011;50.086;19.886;2024-03-29T10:21:14;98088.75;;;15.18;36.01
84781;BME280;75011;50.086;19.886;2024-03-29T10:24:16;98096.34;;;15.29;35.45
84781;BME280;75011;50.086;19.886;2024-03-29T10:27:18;98092.91;;;15.37;35.22
84781;BME280;75011;50.086;19.886;2024-03-29T10:30:19;98102.13;;;15.36;34.34
84781;BME280;75011;50.086;19.886;2024-03-29T10:33:23;98100.72;;;15.39;34.65
84781;BME280;75011;50.086;19.886;2024-03-29T10:36:25;98095.41;;;15.47;34.23
84781;BME280;75011;50.086;19.886;2024-03-29T10:39:29;98085.38;;;15.48;33.76
84781;BME280;75011;50.086;19.886;2024-03-29T10:42:31;98079.41;;;15.59;34.41
84781;BME280;75011;50.086;19.886;2024-03-29T10:45:34;98093.53;;;15.70;34.02
84781;BME280;75011;50.086;19.886;2024-03-29T10:48:39;98083.88;;;15.78;34.79
84781;BME280;75011;50.086;19.886;2024-03-29T10:51:42;98083.34;;;15.89;34.17
84781;BME280;75011;50.086;19.886;2024-03-29T10:54:44;98069.78;;;15.89;33.84
84781;BME280;75011;50.086;19.886;2024-03-29T10:57:48;98077.69;;;16.08;34.41
84781;BME280;75011;50.086;19.886;2024-03-29T11:00:57;98059.75;;;16.20;34.39
84781;BME280;75011;50.086;19.886;2024-03-29T11:04:05;98043.88;;;16.36;33.75
84781;BME280;75011;50.086;19.886;2024-03-29T11:07:15;98054.88;;;16.62;33.25
84781;BME280;75011;50.086;19.886;2024-03-29T11:10:25;98052.34;;;16.74;32.89
84781;BME280;75011;50.086;19.886;2024-03-29T11:13:33;98047.63;;;16.88;33.34
84781;BME280;75011;50.086;19.886;2024-03-29T11:16:39;98032.91;;;16.89;32.70
84781;BME280;75011;50.086;19.886;2024-03-29T11:19:46;98031.50;;;17.00;32.85
84781;BME280;75011;50.086;19.886;2024-03-29T11:22:48;98033.63;;;17.12;32.25
84781;BME280;75011;50.086;19.886;2024-03-29T11:25:51;98019.38;;;16.97;32.43
84781;BME280;75011;50.086;19.886;2024-03-29T11:28:54;98015.53;;;16.98;32.23
84781;BME280;75011;50.086;19.886;2024-03-29T11:31:59;98006.78;;;17.02;33.02
84781;BME280;75011;50.086;19.886;2024-03-29T11:35:02;98009.81;;;17.26;32.12
84781;BME280;75011;50.086;19.886;2024-03-29T11:38:04;98011.25;;;17.49;31.81
84781;BME280;75011;50.086;19.886;2024-03-29T11:41:07;98002.41;;;17.95;31.45
84781;BME280;75011;50.086;19.886;2024-03-29T11:44:09;97990.63;;;18.29;30.01
84781;BME280;75011;50.086;19.886;2024-03-29T11:47:12;97999.91;;;18.65;29.56
84781;BME280;75011;50.086;19.886;2024-03-29T11:50:16;97983.59;;;19.15;29.16
84781;BME280;75011;50.086;19.886;2024-03-29T11:53:18;97986.56;;;20.08;28.27
84781;BME280;75011;50.086;19.886;2024-03-29T11:56:20;97984.66;;;20.21;27.27
84781;BME280;75011;50.086;19.886;2024-03-29T11:59:21;97973.59;;;20.50;26.39
84781;BME280;75011;50.086;19.886;2024-03-29T12:02:23;97961.06;;;20.74;25.93
84781;BME280;75011;50.086;19.886;2024-03-29T12:05:26;97964.09;;;21.20;25.00
84781;BME280;75011;50.086;19.886;2024-03-29T12:08:29;97947.47;;;21.69;24.79
84781;BME280;75011;50.086;19.886;2024-03-29T12:11:31;97947.66;;;22.35;24.08
84781;BME280;75011;50.086;19.886;2024-03-29T12:14:33;97941.72;;;21.86;24.40
84781;BME280;75011;50.086;19.886;2024-03-29T12:17:36;97947.50;;;21.41;24.27
84781;BME280;75011;50.086;19.886;2024-03-29T12:20:40;97909.28;;;20.65;24.52
84781;BME280;75011;50.086;19.886;2024-03-29T12:23:47;97934.31;;;20.79;23.96
84781;BME280;75011;50.086;19.886;2024-03-29T12:26:49;97919.69;;;21.82;23.57
84781;BME280;75011;50.086;19.886;2024-03-29T12:29:51;97929.06;;;22.75;22.29
84781;BME280;75011;50.086;19.886;2024-03-29T12:33:00;97934.94;;;23.89;20.89
84781;BME280;75011;50.086;19.886;2024-03-29T12:36:04;97917.69;;;25.12;20.11
84781;BME280;75011;50.086;19.886;2024-03-29T12:39:06;97924.69;;;26.53;19.00
84781;BME280;75011;50.086;19.886;2024-03-29T12:42:08;97924.34;;;27.27;18.86
84781;BME280;75011;50.086;19.886;2024-03-29T12:45:11;97923.97;;;26.63;18.78
84781;BME280;75011;50.086;19.886;2024-03-29T12:48:14;97911.44;;;25.82;19.26
84781;BME280;75011;50.086;19.886;2024-03-29T12:51:19;97932.03;;;25.58;19.26
84781;BME280;75011;50.086;19.886;2024-03-29T12:54:21;97924.56;;;25.99;19.18
84781;BME280;75011;50.086;19.886;2024-03-29T12:57:23;97943.59;;;27.09;18.71
84781;BME280;75011;50.086;19.886;2024-03-29T13:00:25;97926.84;;;27.46;18.26
84781;BME280;75011;50.086;19.886;2024-03-29T13:03:27;97927.81;;;28.06;17.62
84781;BME280;75011;50.086;19.886;2024-03-29T13:06:30;97900.91;;;27.82;17.76
84781;BME280;75011;50.086;19.886;2024-03-29T13:09:32;97902.53;;;28.40;17.70
84781;BME280;75011;50.086;19.886;2024-03-29T13:12:34;97911.25;;;28.21;17.42
84781;BME280;75011;50.086;19.886;2024-03-29T13:15:37;97904.06;;;27.84;17.66
84781;BME280;75011;50.086;19.886;2024-03-29T13:18:39;97904.38;;;27.55;17.76
84781;BME280;75011;50.086;19.886;2024-03-29T13:21:42;97902.91;;;26.92;18.16
84781;BME280;75011;50.086;19.886;2024-03-29T13:24:44;97899.09;;;27.18;18.20
84781;BME280;75011;50.086;19.886;2024-03-29T13:27:47;97904.84;;;27.95;17.79
84781;BME280;75011;50.086;19.886;2024-03-29T13:30:50;97894.56;;;27.71;17.95
84781;BME280;75011;50.086;19.886;2024-03-29T13:33:52;97906.88;;;28.34;17.77
84781;BME280;75011;50.086;19.886;2024-03-29T13:37:01;97909.91;;;27.55;17.51
84781;BME280;75011;50.086;19.886;2024-03-29T13:40:05;97914.78;;;26.45;18.68
84781;BME280;75011;50.086;19.886;2024-03-29T13:43:07;97911.03;;;26.20;19.12
84781;BME280;75011;50.086;19.886;2024-03-29T13:46:08;97908.63;;;27.34;18.61
84781;BME280;75011;50.086;19.886;2024-03-29T13:49:10;97910.44;;;28.52;17.41
84781;BME280;75011;50.086;19.886;2024-03-29T13:52:15;97907.66;;;29.88;16.64
84781;BME280;75011;50.086;19.886;2024-03-29T13:55:16;97905.25;;;31.27;15.04
84781;BME280;75011;50.086;19.886;2024-03-29T13:58:18;97911.59;;;31.27;15.18
84781;BME280;75011;50.086;19.886;2024-03-29T14:01:20;97893.66;;;31.32;15.23
84781;BME280;75011;50.086;19.886;2024-03-29T14:04:22;97885.97;;;30.75;15.43
84781;BME280;75011;50.086;19.886;2024-03-29T14:07:26;97880.03;;;29.74;16.95
84781;BME280;75011;50.086;19.886;2024-03-29T14:10:28;97897.91;;;30.24;16.87
84781;BME280;75011;50.086;19.886;2024-03-29T14:13:31;97887.13;;;30.37;16.59
84781;BME280;75011;50.086;19.886;2024-03-29T14:16:33;97890.38;;;29.63;17.00
84781;BME280;75011;50.086;19.886;2024-03-29T14:19:35;97884.22;;;29.27;17.99
84781;BME280;75011;50.086;19.886;2024-03-29T14:22:38;97890.28;;;29.84;17.47
84781;BME280;75011;50.086;19.886;2024-03-29T14:25:40;97893.81;;;29.88;17.20
84781;BME280;75011;50.086;19.886;2024-03-29T14:28:41;97892.56;;;29.09;18.17
84781;BME280;75011;50.086;19.886;2024-03-29T14:31:43;97897.28;;;29.99;17.16
84781;BME280;75011;50.086;19.886;2024-03-29T14:34:45;97897.69;;;29.25;17.66
84781;BME280;75011;50.086;19.886;2024-03-29T14:37:48;97882.53;;;29.47;17.89
84781;BME280;75011;50.086;19.886;2024-03-29T14:40:50;97885.44;;;29.08;18.18
84781;BME280;75011;50.086;19.886;2024-03-29T14:43:51;97882.72;;;29.05;18.12
84781;BME280;75011;50.086;19.886;2024-03-29T14:46:54;97886.59;;;29.21;18.14
84781;BME280;75011;50.086;19.886;2024-03-29T14:49:55;97896.84;;;29.32;17.82
84781;BME280;75011;50.086;19.886;2024-03-29T14:52:58;97909.56;;;29.98;17.18
84781;BME280;75011;50.086;19.886;2024-03-29T14:56:00;97919.09;;;30.89;16.10
84781;BME280;75011;50.086;19.886;2024-03-29T14:59:04;97900.81;;;30.58;16.62
84781;BME280;75011;50.086;19.886;2024-03-29T15:02:06;97918.00;;;30.83;16.14
84781;BME280;75011;50.086;19.886;2024-03-29T15:05:08;97913.41;;;30.66;16.23
84781;BME280;75011;50.086;19.886;2024-03-29T15:08:13;97920.06;;;30.76;16.41
84781;BME280;75011;50.086;19.886;2024-03-29T15:11:18;97909.84;;;31.40;15.97
84781;BME280;75011;50.086;19.886;2024-03-29T15:14:19;97911.22;;;31.86;15.55
84781;BME280;75011;50.086;19.886;2024-03-29T15:17:21;97917.38;;;31.40;16.27
84781;BME280;75011;50.086;19.886;2024-03-29T15:20:23;97909.75;;;31.13;16.12
84781;BME280;75011;50.086;19.886;2024-03-29T15:23:27;97909.41;;;31.42;15.95
84781;BME280;75011;50.086;19.886;2024-03-29T15:26:29;97906.44;;;30.47;16.30
84781;BME280;75011;50.086;19.886;2024-03-29T15:29:31;97909.91;;;30.07;17.01
84781;BME280;75011;50.086;19.886;2024-03-29T15:32:32;97906.97;;;30.76;16.45
84781;BME280;75011;50.086;19.886;2024-03-29T15:35:35;97905.84;;;30.67;16.59
84781;BME280;75011;50.086;19.886;2024-03-29T15:38:38;97905.41;;;30.27;16.96
84781;BME280;75011;50.086;19.886;2024-03-29T15:41:40;97903.59;;;29.23;18.40
84781;BME280;75011;50.086;19.886;2024-03-29T15:44:43;97917.88;;;27.88;19.59
84781;BME280;75011;50.086;19.886;2024-03-29T15:47:45;97909.97;;;26.82;20.45
84781;BME280;75011;50.086;19.886;2024-03-29T15:50:47;97899.28;;;25.83;21.62
84781;BME280;75011;50.086;19.886;2024-03-29T15:53:51;97897.44;;;26.96;20.55
84781;BME280;75011;50.086;19.886;2024-03-29T15:56:54;97902.47;;;27.83;19.96
84781;BME280;75011;50.086;19.886;2024-03-29T15:59:56;97899.63;;;25.81;21.86